Time;durP1;ratioP1;P1;durP2;ratioP2;P2;SDS_P1;SDS_P2;PMS_P1;PMS_P2;Temp;Humidity;BMP_temperature;BMP_pressure;BME280_temperature;BME280_humidity;BME280_pressure;Samples;Min_cycle;Max_cycle;Signal;HPM_P1;HPM_P2
2022/03/01 00:02:31;;;;;;;28.05;12.07;;;;;;;0.05;100.00;101759.47;4950469;29;20062;-55
2022/03/01 00:05:16;;;;;;;28.90;11.75;;;;;;;0.40;100.00;101815.22;4948811;29;20102;-57
2022/03/01 00:08:00;;;;;;;26.35;11.32;;;;;;;-0.01;100.00;101811.28;4934845;29;20050;-56
2022/03/01 00:10:45;;;;;;;29.58;11.80;;;;;;;-0.10;100.00;101808.19;4949441;29;20058;-56
2022/03/01 00:13:29;;;;;;;22.92;11.02;;;;;;;-0.02;100.00;101801.69;4949462;29;20094;-52
2022/03/01 00:16:15;;;;;;;26.15;11.65;;;;;;;0.01;100.00;101799.22;4950460;29;20662;-52
2022/03/01 00:18:59;;;;;;;28.15;12.02;;;;;;;-0.14;100.00;101769.75;4908018;29;20054;-55
2022/03/01 00:21:44;;;;;;;30.33;13.02;;;;;;;0.03;100.00;101813.25;4934823;29;20118;-55
2022/03/01 00:24:28;;;;;;;29.38;12.52;;;;;;;-0.15;100.00;101778.34;4946201;29;20054;-62
2022/03/01 00:27:13;;;;;;;33.88;12.60;;;;;;;-0.01;100.00;101799.97;4934595;29;20058;-56
2022/03/01 00:29:57;;;;;;;32.65;11.98;;;;;;;-0.06;100.00;101794.50;4946751;29;20157;-58
2022/03/01 00:32:42;;;;;;;33.92;12.38;;;;;;;-0.10;100.00;101796.88;4929425;29;20120;-57
2022/03/01 00:35:26;;;;;;;30.60;11.60;;;;;;;-0.18;100.00;101799.06;4945785;29;20117;-59
2022/03/01 00:38:11;;;;;;;27.88;11.70;;;;;;;-0.24;100.00;101759.63;4950904;29;20042;-57
2022/03/01 00:40:55;;;;;;;27.00;11.77;;;;;;;-0.05;100.00;101793.69;4952157;29;20057;-56
2022/03/01 00:43:40;;;;;;;28.27;12.00;;;;;;;-0.53;100.00;101712.84;4949258;29;20061;-61
2022/03/01 00:46:26;;;;;;;28.88;12.35;;;;;;;-0.28;100.00;101754.13;4949520;29;20530;-59
2022/03/01 00:49:11;;;;;;;30.58;11.93;;;;;;;-0.15;100.00;101778.34;4920626;29;20194;-55
2022/03/01 00:51:55;;;;;;;27.80;12.35;;;;;;;-0.04;100.00;101784.13;4950574;29;20093;-58
2022/03/01 00:54:40;;;;;;;30.25;12.15;;;;;;;-0.09;100.00;101788.22;4950480;29;20094;-54
2022/03/01 00:57:27;;;;;;;32.75;12.55;;;;;;;-0.08;100.00;101780.47;4950269;29;20057;-60
2022/03/01 01:00:13;;;;;;;24.45;11.20;;;;;;;-0.07;100.00;101777.06;4950273;29;20045;-56
2022/03/01 01:02:57;;;;;;;26.70;11.68;;;;;;;-0.25;100.00;101781.28;4933863;29;20190;-62
2022/03/01 01:05:42;;;;;;;25.70;11.40;;;;;;;-0.27;100.00;101782.03;4950332;29;20058;-55
2022/03/01 01:08:26;;;;;;;30.45;12.40;;;;;;;-0.35;100.00;101798.94;4947269;29;20118;-56
2022/03/01 01:11:11;;;;;;;30.02;13.30;;;;;;;-0.64;100.00;101740.00;4950305;28;20050;-58
2022/03/01 01:13:56;;;;;;;31.83;12.90;;;;;;;-0.35;100.00;101791.13;4951226;29;20358;-54
2022/03/01 01:16:41;;;;;;;28.08;11.52;;;;;;;-0.37;100.00;101793.66;4950302;29;20098;-54
2022/03/01 01:19:25;;;;;;;24.65;9.93;;;;;;;-0.42;100.00;101788.97;4949518;29;20098;-54
2022/03/01 01:25:23;;;;;;;30.00;10.75;;;;;;;-0.62;100.00;101768.75;4941018;29;20090;-55
2022/03/01 01:28:07;;;;;;;28.35;10.40;;;;;;;-0.57;100.00;101786.44;4947874;29;20206;-54
2022/03/01 01:30:52;;;;;;;31.45;11.40;;;;;;;-0.55;100.00;101766.56;4947627;29;20054;-58
2022/03/01 01:33:36;;;;;;;26.58;10.73;;;;;;;-0.80;100.00;101747.75;4933255;29;20089;-54
2022/03/01 01:36:23;;;;;;;24.75;10.63;;;;;;;-0.85;100.00;101731.00;4948937;29;20113;-54
2022/03/01 01:39:07;;;;;;;28.98;11.80;;;;;;;-0.54;100.00;101780.47;4929315;29;20428;-55
2022/03/01 01:41:52;;;;;;;22.50;10.70;;;;;;;-0.63;100.00;101777.38;4935343;29;20118;-55
2022/03/01 01:44:36;;;;;;;29.60;11.50;;;;;;;-1.16;100.00;101730.06;4947314;29;20054;-58
2022/03/01 01:47:21;;;;;;;30.83;11.80;;;;;;;-1.02;100.00;101778.59;4948685;29;20154;-54
2022/03/01 01:50:07;;;;;;;29.23;11.70;;;;;;;-1.11;100.00;101777.19;4947579;29;20101;-55
2022/03/01 01:52:53;;;;;;;25.05;10.93;;;;;;;-0.95;100.00;101777.25;4949276;29;20085;-56
2022/03/01 01:55:38;;;;;;;31.95;12.45;;;;;;;-0.86;100.00;101777.78;4948467;29;20525;-54
2022/03/01 01:58:22;;;;;;;37.58;13.35;;;;;;;-0.82;100.00;101784.94;4921690;29;20098;-55
2022/03/01 02:01:07;;;;;;;33.53;15.10;;;;;;;-1.00;100.00;101748.34;4949799;29;20070;-55
2022/03/01 02:03:51;;;;;;;41.13;15.57;;;;;;;-0.84;100.00;101768.31;4948885;29;20077;-61
2022/03/01 02:06:37;;;;;;;34.90;15.50;;;;;;;-0.81;100.00;101781.53;4949422;29;20643;-54
2022/03/01 02:09:21;;;;;;;43.10;15.70;;;;;;;-0.87;100.00;101782.06;4946780;29;20125;-59
2022/03/01 02:12:06;;;;;;;46.70;16.17;;;;;;;-0.84;100.00;101784.84;4934067;29;20058;-57
2022/03/01 02:14:51;;;;;;;33.28;14.50;;;;;;;-0.91;100.00;101766.22;4941697;29;20041;-61
2022/03/01 02:17:39;;;;;;;31.25;13.35;;;;;;;-0.98;100.00;101788.38;4941236;29;20243;-54
2022/03/01 02:20:24;;;;;;;35.75;13.60;;;;;;;-0.98;100.00;101761.44;4948819;29;20055;-57
2022/03/01 02:23:09;;;;;;;34.72;13.00;;;;;;;-0.90;100.00;101776.69;4947511;28;20627;-61
2022/03/01 02:25:54;;;;;;;35.17;14.45;;;;;;;-0.85;100.00;101785.69;4950523;29;20476;-56
2022/03/01 02:28:38;;;;;;;32.33;12.70;;;;;;;-0.92;100.00;101769.59;4936189;29;20566;-55
2022/03/01 02:31:23;;;;;;;32.15;13.38;;;;;;;-0.79;100.00;101792.94;4951768;29;20078;-56
2022/03/01 02:34:08;;;;;;;30.58;12.55;;;;;;;-0.96;100.00;101765.94;4951911;29;20191;-58
2022/03/01 02:36:53;;;;;;;31.30;13.15;;;;;;;-1.67;100.00;101784.22;4953261;29;20066;-53
2022/03/01 02:39:37;;;;;;;30.10;12.85;;;;;;;-1.71;100.00;101777.03;4937866;29;20050;-60
2022/03/01 02:42:22;;;;;;;28.73;13.35;;;;;;;-1.88;100.00;101774.22;4952068;29;20109;-62
2022/03/01 02:45:10;;;;;;;24.60;11.18;;;;;;;-1.78;100.00;101781.78;4938634;29;20542;-54
2022/03/01 02:47:54;;;;;;;24.35;12.15;;;;;;;-1.71;100.00;101786.53;4952028;29;20106;-54
2022/03/01 02:50:39;;;;;;;32.30;12.90;;;;;;;-1.55;100.00;101779.75;4954646;29;20050;-54
2022/03/01 02:53:23;;;;;;;28.58;11.30;;;;;;;-1.59;100.00;101776.88;4953148;29;20062;-53
2022/03/01 02:56:08;;;;;;;27.67;12.02;;;;;;;-1.79;100.00;101736.69;4952496;29;20062;-53
2022/03/01 02:58:55;;;;;;;32.28;11.88;;;;;;;-1.56;100.00;101779.66;4952552;29;20530;-54
2022/03/01 03:01:39;;;;;;;30.45;13.35;;;;;;;-1.55;100.00;101764.16;4923545;29;20074;-57
2022/03/01 03:04:24;;;;;;;24.52;11.57;;;;;;;-1.53;100.00;101761.63;4935982;29;20420;-59
2022/03/01 03:07:08;;;;;;;30.88;12.05;;;;;;;-1.50;100.00;101769.63;4948221;29;20103;-52
2022/03/01 03:09:53;;;;;;;30.65;11.75;;;;;;;-1.57;100.00;101767.47;4950289;29;20069;-55
2022/03/01 03:12:38;;;;;;;26.65;12.23;;;;;;;-1.53;100.00;101770.34;4950053;29;20102;-53
2022/03/01 03:15:22;;;;;;;31.00;13.57;;;;;;;-1.68;100.00;101750.31;4950986;29;20094;-51
2022/03/01 03:18:06;;;;;;;29.85;12.90;;;;;;;-1.79;100.00;101765.28;4950257;29;20058;-59
2022/03/01 03:20:51;;;;;;;30.23;12.15;;;;;;;-1.79;100.00;101759.16;4948950;29;20587;-62
2022/03/01 03:23:36;;;;;;;24.33;12.15;;;;;;;-1.86;100.00;101744.91;4952715;29;20069;-55
2022/03/01 03:26:21;;;;;;;25.05;11.10;;;;;;;-2.17;100.00;101714.38;4932995;29;20090;-54
2022/03/01 03:29:10;;;;;;;32.30;12.38;;;;;;;-1.76;100.00;101761.97;4937172;29;20050;-55
2022/03/01 03:31:57;;;;;;;30.75;12.02;;;;;;;-1.60;100.00;101762.06;4950287;29;20089;-56
2022/03/01 03:34:41;;;;;;;28.27;10.77;;;;;;;-1.70;100.00;101763.22;4918098;29;20099;-60
2022/03/01 03:37:26;;;;;;;31.40;12.13;;;;;;;-2.08;100.00;101713.25;4951981;29;20067;-54
2022/03/01 03:40:11;;;;;;;28.42;11.68;;;;;;;-2.05;100.00;101759.31;4948760;29;20098;-55
2022/03/01 03:42:56;;;;;;;30.13;12.32;;;;;;;-2.39;100.00;101758.00;4954034;29;20491;-55
2022/03/01 03:45:40;;;;;;;35.50;12.32;;;;;;;-2.35;100.00;101762.59;4951655;29;20046;-57
2022/03/01 03:48:26;;;;;;;29.13;13.23;;;;;;;-2.26;100.00;101765.78;4938049;29;20612;-56
2022/03/01 03:51:10;;;;;;;32.53;13.57;;;;;;;-2.51;100.00;101726.06;4951247;29;20502;-56
2022/03/01 03:53:54;;;;;;;36.28;13.82;;;;;;;-2.14;100.00;101761.34;4937057;29;20053;-55
2022/03/01 03:56:39;;;;;;;41.63;16.98;;;;;;;-1.94;100.00;101766.06;4951892;29;20074;-59
2022/03/01 03:59:23;;;;;;;40.22;18.52;;;;;;;-1.91;100.00;101758.44;4950020;29;20078;-68
2022/03/01 04:02:08;;;;;;;33.88;15.55;;;;;;;-1.80;100.00;101772.97;4949022;29;20098;-60
2022/03/01 04:04:53;;;;;;;47.28;16.33;;;;;;;-1.80;100.00;101766.09;4948344;29;20125;-55
2022/03/01 04:07:37;;;;;;;41.55;15.98;;;;;;;-1.73;100.00;101759.56;4951261;29;20066;-57
2022/03/01 04:10:22;;;;;;;54.45;16.75;;;;;;;-1.67;100.00;101767.72;4951160;29;20118;-56
2022/03/01 04:13:06;;;;;;;40.75;15.98;;;;;;;-1.63;100.00;101764.47;4950742;29;20135;-60
2022/03/01 04:15:51;;;;;;;38.53;15.75;;;;;;;-1.57;100.00;101768.38;4951453;29;20110;-57
2022/03/01 04:18:35;;;;;;;40.80;17.20;;;;;;;-1.54;100.00;101768.53;4935174;29;20077;-61
2022/03/01 04:21:20;;;;;;;41.83;18.23;;;;;;;-1.57;100.00;101757.06;4950647;29;20082;-58
2022/03/01 04:24:06;;;;;;;45.65;19.52;;;;;;;-1.56;100.00;101769.25;4934564;29;20054;-54
2022/03/01 04:26:50;;;;;;;41.17;18.67;;;;;;;-1.55;100.00;101758.03;4948330;29;20600;-56
2022/03/01 04:29:35;;;;;;;43.53;20.88;;;;;;;-2.17;100.00;101761.16;4950975;29;20062;-56
2022/03/01 04:32:19;;;;;;;47.15;20.20;;;;;;;-2.72;100.00;101725.63;4949392;29;20049;-55
2022/03/01 04:35:05;;;;;;;46.78;20.73;;;;;;;-2.69;100.00;101767.34;4935377;29;20058;-55
2022/03/01 04:37:50;;;;;;;53.53;21.80;;;;;;;-2.37;100.00;101769.41;4948871;29;20522;-62
2022/03/01 04:40:34;;;;;;;52.55;24.85;;;;;;;-2.16;100.00;101783.72;4929302;29;20124;-56
2022/03/01 04:43:19;;;;;;;66.38;29.85;;;;;;;-2.32;100.00;101713.44;4919675;29;20626;-60
2022/03/01 04:46:04;;;;;;;62.72;28.00;;;;;;;-1.93;100.00;101779.13;4948456;28;20070;-56
2022/03/01 04:48:49;;;;;;;;;;;;;;;-1.83;100.00;101778.91;4949068;29;20158;-56
2022/03/01 04:51:34;;;;;;;47.83;20.70;;;;;;;-1.75;100.00;101794.94;4928975;29;19930;-56
2022/03/01 04:54:18;;;;;;;45.72;21.45;;;;;;;-1.98;100.00;101730.28;4942995;29;20054;-56
2022/03/01 04:57:03;;;;;;;46.25;19.77;;;;;;;-1.85;100.00;101780.53;4947661;29;20066;-64
2022/03/01 04:59:48;;;;;;;;;;;;;;;-1.97;100.00;101784.06;4935468;29;20127;-54
2022/03/01 05:02:32;;;;;;;42.00;17.67;;;;;;;-2.01;100.00;101782.94;4948882;29;19925;-57
2022/03/01 05:05:17;;;;;;;40.67;16.25;;;;;;;-1.97;100.00;101792.72;4950073;29;20054;-58
2022/03/01 05:08:02;;;;;;;39.50;16.48;;;;;;;-2.19;100.00;101789.63;4933208;29;20419;-56
2022/03/01 05:10:46;;;;;;;34.55;15.20;;;;;;;-2.44;100.00;101749.03;4950324;29;20057;-55
2022/03/01 05:13:31;;;;;;;29.88;14.77;;;;;;;-2.30;100.00;101769.00;4929545;29;20428;-56
2022/03/01 05:16:15;;;;;;;31.20;15.10;;;;;;;-2.40;100.00;101790.88;4949598;29;20049;-59
2022/03/01 05:19:00;;;;;;;35.90;15.88;;;;;;;-2.51;100.00;101745.16;4950055;29;20118;-57
2022/03/01 05:21:44;;;;;;;34.47;15.32;;;;;;;-2.42;100.00;101771.69;4931956;29;20531;-59
2022/03/01 05:24:29;;;;;;;40.05;17.70;;;;;;;-2.26;100.00;101777.06;4949422;29;20152;-60
2022/03/01 05:27:14;;;;;;;34.13;15.85;;;;;;;-2.06;100.00;101780.91;4927456;29;20444;-58
2022/03/01 05:29:59;;;;;;;39.10;16.40;;;;;;;-1.89;100.00;101782.81;4936293;29;20544;-56
2022/03/01 05:32:47;;;;;;;36.00;15.95;;;;;;;-2.01;100.00;101728.38;4947581;29;20475;-58
2022/03/01 05:35:32;;;;;;;37.28;16.08;;;;;;;-1.61;100.00;101782.00;4930934;29;20053;-63
2022/03/01 05:38:16;;;;;;;40.92;16.23;;;;;;;-1.75;100.00;101736.06;4946432;29;20772;-57
2022/03/01 05:41:01;;;;;;;46.63;16.65;;;;;;;-1.44;100.00;101778.69;4945421;29;20061;-59
2022/03/01 05:43:46;;;;;;;35.40;15.63;;;;;;;-1.39;100.00;101768.53;4942222;29;20089;-55
2022/03/01 05:46:30;;;;;;;39.90;16.05;;;;;;;-1.57;100.00;101737.16;4946102;29;20149;-58
2022/03/01 05:49:14;;;;;;;71.45;34.22;;;;;;;-1.28;100.00;101783.09;4933097;29;20469;-55
2022/03/01 05:51:59;;;;;;;48.05;16.85;;;;;;;-1.18;100.00;101788.91;4947108;29;20121;-58
2022/03/01 05:54:43;;;;;;;42.53;16.92;;;;;;;-1.23;100.00;101777.34;4948623;29;20067;-60
2022/03/01 05:57:29;;;;;;;46.08;18.50;;;;;;;-1.23;100.00;101790.34;4920727;29;20141;-55
2022/03/01 06:00:17;;;;;;;40.58;16.77;;;;;;;-1.17;100.00;101784.63;4931504;29;20050;-55
2022/03/01 06:03:01;;;;;;;32.80;16.23;;;;;;;-1.11;100.00;101780.66;4947272;29;20049;-53
2022/03/01 06:05:46;;;;;;;41.72;17.20;;;;;;;-1.24;100.00;101788.56;4946364;29;20840;-53
2022/03/01 06:08:30;;;;;;;40.95;18.45;;;;;;;-1.33;100.00;101776.72;4948362;29;20050;-59
2022/03/01 06:11:15;;;;;;;47.28;19.00;;;;;;;-1.77;100.00;101727.28;4946738;29;20178;-55
2022/03/01 06:13:59;;;;;;;43.95;19.67;;;;;;;-1.43;100.00;101780.47;4948659;29;20046;-69
2022/03/01 06:16:44;;;;;;;41.10;18.45;;;;;;;-1.36;100.00;101777.44;4947905;29;20070;-59
2022/03/01 06:19:29;;;;;;;42.42;18.65;;;;;;;-1.26;100.00;101781.47;4916465;29;20510;-59
2022/03/01 06:22:14;;;;;;;43.90;18.38;;;;;;;-1.21;100.00;101769.63;4946376;29;20057;-60
2022/03/01 06:25:00;;;;;;;38.40;17.85;;;;;;;-1.47;100.00;101735.97;4938862;29;20073;-60
2022/03/01 06:27:44;;;;;;;36.22;16.67;;;;;;;-1.14;100.00;101785.69;4926300;29;20419;-60
2022/03/01 06:30:29;;;;;;;41.33;17.70;;;;;;;-1.05;100.00;101782.72;4937112;29;20117;-56
2022/03/01 06:33:14;;;;;;;38.30;15.77;;;;;;;-1.12;100.00;101783.16;4939557;29;20061;-64
2022/03/01 06:35:58;;;;;;;38.15;16.05;;;;;;;-0.88;100.00;101775.06;4952276;28;20046;-61
2022/03/01 06:38:43;;;;;;;40.20;15.85;;;;;;;-0.76;100.00;101754.03;4944712;29;20054;-61
2022/03/01 06:41:27;;;;;;;45.42;16.58;;;;;;;-0.70;100.00;101780.44;4936120;29;20122;-59
2022/03/01 06:44:11;;;;;;;39.03;17.48;;;;;;;-0.73;100.00;101782.84;4933984;29;20054;-60
2022/03/01 06:46:57;;;;;;;43.67;16.95;;;;;;;-0.58;100.00;101784.63;4914584;29;20565;-58
2022/03/01 06:49:41;;;;;;;;;;;;;;;-0.36;100.00;101785.00;4949632;29;20698;-61
2022/03/01 06:52:25;;;;;;;29.20;13.20;;;;;;;-0.27;100.00;101779.41;4948007;29;19970;-61
2022/03/01 06:55:10;;;;;;;34.65;13.43;;;;;;;-0.34;100.00;101787.69;4929773;29;20134;-59
2022/03/01 06:57:56;;;;;;;34.22;15.48;;;;;;;-0.23;100.00;101790.06;4935601;29;20089;-61
2022/03/01 07:00:41;;;;;;;35.30;15.00;;;;;;;-0.15;100.00;101787.91;4950584;29;20053;-56
2022/03/01 07:03:25;;;;;;;33.83;15.70;;;;;;;-0.29;100.00;101776.72;4946779;29;20114;-54
2022/03/01 07:06:11;;;;;;;38.80;16.75;;;;;;;-0.14;100.00;101795.81;4947696;29;20045;-58
2022/03/01 07:08:55;;;;;;;35.17;16.88;;;;;;;-0.15;100.00;101788.78;4933771;28;20493;-61
2022/03/01 07:11:40;;;;;;;35.85;16.35;;;;;;;-0.26;100.00;101732.59;4937151;29;20138;-60
2022/03/01 07:14:25;;;;;;;42.40;16.65;;;;;;;0.09;100.00;101771.84;4938180;29;20050;-64
2022/03/01 07:17:09;;;;;;;47.25;17.25;;;;;;;0.42;100.00;101788.38;4949968;29;20109;-64
2022/03/01 07:19:54;;;;;;;37.05;15.48;;;;;;;0.53;100.00;101789.84;4950071;29;20050;-60
2022/03/01 07:22:39;;;;;;;41.65;16.50;;;;;;;0.70;100.00;101794.22;4921505;29;20049;-61
2022/03/01 07:25:23;;;;;;;40.50;17.85;;;;;;;0.82;100.00;101788.75;4922147;29;20431;-60
2022/03/01 07:28:08;;;;;;;45.63;17.63;;;;;;;0.99;100.00;101800.94;4920520;29;20309;-59
2022/03/01 07:30:52;;;;;;;41.38;18.05;;;;;;;1.00;100.00;101759.22;4922481;29;20066;-59
2022/03/01 07:33:38;;;;;;;42.33;16.13;;;;;;;1.32;100.00;101792.13;4951460;29;20053;-60
2022/03/01 07:36:22;;;;;;;38.40;16.98;;;;;;;1.35;100.00;101802.75;4934699;29;20050;-63
2022/03/01 07:39:07;;;;;;;41.97;16.65;;;;;;;1.30;100.00;101797.28;4950025;29;20050;-60
2022/03/01 07:41:51;;;;;;;32.40;15.18;;;;;;;1.40;100.00;101794.31;4948678;29;20050;-63
2022/03/01 07:44:37;;;;;;;38.97;15.48;;;;;;;1.39;100.00;101771.63;4950695;29;20093;-58
2022/03/01 07:47:23;;;;;;;34.88;15.60;;;;;;;1.37;100.00;101757.56;4929936;29;20062;-59
2022/03/01 07:50:09;;;;;;;39.85;15.57;;;;;;;1.77;100.00;101790.00;4935332;29;20104;-59
2022/03/01 07:52:54;;;;;;;38.22;14.85;;;;;;;1.96;100.00;101792.66;4949401;29;20522;-59
2022/03/01 07:55:39;;;;;;;45.10;15.27;;;;;;;1.83;100.00;101727.53;4930848;29;20058;-61
2022/03/01 07:58:23;;;;;;;48.50;17.40;;;;;;;2.31;100.00;101779.47;4951683;29;20106;-57
2022/03/01 08:01:08;;;;;;;42.28;16.77;;;;;;;2.06;100.00;101770.44;4933926;29;20427;-60
2022/03/01 08:03:52;;;;;;;51.20;17.35;;;;;;;2.24;100.00;101782.63;4938180;29;20058;-59
2022/03/01 08:06:37;;;;;;;38.78;17.05;;;;;;;2.19;100.00;101772.78;4950131;29;20062;-60
2022/03/01 08:09:21;;;;;;;46.10;16.98;;;;;;;2.35;100.00;101775.25;4935762;29;20062;-60
2022/03/01 08:12:07;;;;;;;53.53;18.05;;;;;;;2.54;100.00;101783.09;4950297;29;20574;-59
2022/03/01 08:14:52;;;;;;;44.28;17.02;;;;;;;2.55;100.00;101769.19;4916809;29;20090;-60
2022/03/01 08:17:44;;;;;;;45.28;17.45;;;;;;;4.25;100.00;101769.19;4924235;29;20411;-61
2022/03/01 08:20:29;;;;;;;38.40;16.08;;;;;;;7.21;100.00;101763.72;4935391;28;20976;-58
2022/03/01 08:23:13;;;;;;;32.15;15.77;;;;;;;9.04;89.33;101783.66;4950466;29;20050;-58
2022/03/01 08:25:58;;;;;;;32.92;15.82;;;;;;;10.17;72.94;101771.34;4948542;29;20050;-59
2022/03/01 08:28:45;;;;;;;32.80;16.70;;;;;;;11.36;62.98;101782.44;4934334;29;20054;-63
2022/03/01 08:31:29;;;;;;;34.65;17.00;;;;;;;12.54;52.22;101752.22;4948348;29;20133;-59
2022/03/01 08:34:15;;;;;;;35.53;16.48;;;;;;;14.12;46.04;101789.66;4949010;29;20562;-59
2022/03/01 08:37:00;;;;;;;27.55;16.38;;;;;;;15.04;41.30;101780.41;4951166;29;20081;-57
2022/03/01 08:39:47;;;;;;;32.70;16.60;;;;;;;16.35;37.75;101781.94;4950447;29;20061;-57
2022/03/01 08:42:32;;;;;;;;;;;;;;;17.86;32.79;101786.91;4923108;29;20057;-59
2022/03/01 08:45:16;;;;;;;30.73;16.05;;;;;;;18.58;28.80;101764.03;4952100;28;20021;-58
2022/03/01 08:48:03;;;;;;;36.17;17.70;;;;;;;18.22;27.91;101764.75;4949890;29;20217;-63
2022/03/01 08:50:48;;;;;;;43.25;17.77;;;;;;;18.80;26.53;101789.56;4930171;29;20098;-57
2022/03/01 08:53:33;;;;;;;34.22;16.48;;;;;;;19.35;25.37;101798.19;4947955;29;20073;-58
2022/03/01 08:56:19;;;;;;;30.67;16.73;;;;;;;20.24;24.12;101802.19;4934712;29;20159;-61
2022/03/01 08:59:05;;;;;;;33.22;14.63;;;;;;;20.70;22.39;101796.38;4948298;29;20848;-57
2022/03/01 09:01:50;;;;;;;19.40;12.23;;;;;;;19.50;21.47;101764.66;4933966;29;20114;-57
2022/03/01 09:04:34;;;;;;;24.58;12.43;;;;;;;19.68;22.58;101796.47;4949328;29;20134;-56
2022/03/01 09:07:19;;;;;;;22.85;12.90;;;;;;;20.90;21.18;101796.69;4945586;29;20105;-61
2022/03/01 09:10:05;;;;;;;;;;;;;;;21.30;20.09;101786.44;4950447;29;20078;-55
2022/03/01 09:12:53;;;;;;;20.65;11.85;;;;;;;20.88;21.20;101774.25;4931930;29;19976;-55
2022/03/01 09:15:38;;;;;;;17.63;10.63;;;;;;;20.92;19.61;101762.47;4919401;29;20058;-56
2022/03/01 09:18:23;;;;;;;20.67;12.10;;;;;;;20.59;19.68;101777.81;4949499;29;20131;-60
2022/03/01 09:21:09;;;;;;;18.00;12.50;;;;;;;20.13;21.10;101771.09;4933163;29;20058;-63
2022/03/01 09:23:53;;;;;;;25.70;12.45;;;;;;;20.98;20.09;101773.97;4948325;29;20098;-59
2022/03/01 09:26:38;;;;;;;;;;;;;;;21.30;19.87;101772.97;4946659;29;20482;-53
2022/03/01 09:29:22;;;;;;;16.13;10.40;;;;;;;20.32;19.79;101748.06;4934148;29;20385;-58
2022/03/01 09:32:07;;;;;;;;;;;;;;;21.52;18.99;101763.25;4933618;28;20050;-57
2022/03/01 09:34:51;;;;;;;13.40;9.50;;;;;;;21.59;18.47;101762.06;4950103;28;20262;-57
2022/03/01 09:37:36;;;;;;;;;;;;;;;22.83;21.31;101763.94;4948315;29;20114;-57
2022/03/01 09:40:20;;;;;;;15.18;9.55;;;;;;;20.12;20.53;101753.13;4949204;28;20020;-60
2022/03/01 09:43:04;;;;;;;;;;;;;;;19.08;27.56;101749.47;4948273;29;20193;-54
2022/03/01 09:45:49;;;;;;;12.20;7.93;;;;;;;17.88;22.19;101732.28;4950274;28;19977;-57
2022/03/01 09:48:37;;;;;;;10.70;7.43;;;;;;;18.11;22.22;101731.84;4949793;29;20142;-53
2022/03/01 09:51:22;;;;;;;12.57;7.22;;;;;;;20.04;20.03;101745.22;4919547;29;20159;-58
2022/03/01 09:54:09;;;;;;;9.05;6.72;;;;;;;19.50;20.41;101743.09;4949417;29;20130;-58
2022/03/01 09:56:53;;;;;;;;;;;;;;;20.28;21.09;101741.91;4949196;29;20054;-59
2022/03/01 09:59:38;;;;;;;16.13;6.93;;;;;;;20.63;17.31;101740.88;4950768;28;19925;-63
2022/03/01 10:02:32;;;;;;;;;;;;;;;21.23;18.58;101733.59;4934126;29;20511;-60
2022/03/01 10:05:16;;;;;;;11.93;7.15;;;;;;;21.20;16.77;101734.59;4948720;28;20057;-57
2022/03/01 10:08:12;;;;;;;12.55;6.75;;;;;;;21.55;17.11;101741.50;4947576;29;20102;-53
2022/03/01 10:10:57;;;;;;;23.00;8.38;;;;;;;21.27;16.53;101702.88;4937317;29;20114;-61
2022/03/01 10:13:42;;;;;;;15.23;8.02;;;;;;;23.02;16.20;101729.78;4918427;29;20054;-57
2022/03/01 10:16:36;;;;;;;13.40;8.30;;;;;;;23.13;15.17;101733.81;4934409;29;20473;-54
2022/03/01 10:19:23;;;;;;;15.57;8.45;;;;;;;22.26;15.60;101726.41;4950309;29;20050;-54
2022/03/01 10:22:07;;;;;;;17.92;8.10;;;;;;;22.86;14.90;101731.34;4930061;29;20074;-62
2022/03/01 10:24:51;;;;;;;;;;;;;;;23.34;15.25;101729.41;4947600;29;20090;-58
2022/03/01 10:27:36;;;;;;;19.37;8.27;;;;;;;23.74;14.41;101694.25;4945223;29;20012;-58
2022/03/01 10:30:30;;;;;;;15.90;6.88;;;;;;;24.21;13.78;101720.19;4948166;29;20988;-58
2022/03/01 10:33:16;;;;;;;17.60;7.82;;;;;;;23.15;14.26;101698.56;4933026;29;20058;-57
2022/03/01 10:36:00;;;;;;;12.13;7.03;;;;;;;22.62;14.73;101716.06;4947141;29;20053;-62
2022/03/01 10:38:52;;;;;;;;;;;;;;;23.27;14.21;101717.06;4948518;29;20147;-56
2022/03/01 10:41:43;;;;;;;13.02;6.82;;;;;;;24.05;14.82;101708.28;4933443;29;20057;-56
2022/03/01 10:44:30;;;;;;;9.77;6.50;;;;;;;24.12;13.68;101707.03;4934425;29;20361;-56
2022/03/01 10:47:20;;;;;;;15.43;7.00;;;;;;;23.48;14.41;101708.03;4951974;29;20105;-57
2022/03/01 10:50:10;;;;;;;11.82;6.82;;;;;;;22.77;14.37;101691.09;4950507;29;20443;-55
2022/03/01 10:52:55;;;;;;;14.77;6.60;;;;;;;22.94;14.07;101680.50;4952137;29;20086;-57
2022/03/01 10:55:42;;;;;;;15.30;7.03;;;;;;;22.87;14.43;101693.41;4951360;29;20183;-52
2022/03/01 10:58:28;;;;;;;13.60;7.35;;;;;;;24.32;14.32;101688.00;4950213;29;20050;-62
2022/03/01 11:01:13;;;;;;;17.83;7.22;;;;;;;24.23;13.54;101655.91;4935959;29;20216;-54
2022/03/01 11:03:58;;;;;;;14.32;7.10;;;;;;;23.67;14.03;101680.09;4952241;29;20058;-55
2022/03/01 11:06:43;;;;;;;15.05;7.07;;;;;;;22.90;14.32;101681.56;4951553;29;20086;-53
2022/03/01 11:09:31;;;;;;;14.48;7.75;;;;;;;23.01;14.89;101677.47;4935080;29;20199;-57
2022/03/01 11:12:21;;;;;;;18.58;7.93;;;;;;;23.73;14.85;101678.97;4950517;29;20094;-56
2022/03/01 11:15:23;;;;;;;13.52;7.93;;;;;;;24.19;14.57;101671.44;4951830;29;20188;-58
2022/03/01 11:18:24;;;;;;;15.65;7.88;;;;;;;24.26;13.83;101640.38;4950365;29;20058;-62
2022/03/01 11:21:11;;;;;;;15.82;7.82;;;;;;;24.31;13.68;101667.28;4936024;29;20102;-59
2022/03/01 11:23:57;;;;;;;14.82;9.10;;;;;;;23.50;13.92;101641.16;4935546;29;20050;-57
2022/03/01 11:26:42;;;;;;;16.10;9.32;;;;;;;23.17;15.01;101638.00;4935800;29;20061;-57
2022/03/01 11:29:27;;;;;;;13.70;8.65;;;;;;;23.41;13.73;101641.56;4922774;29;20054;-62
2022/03/01 11:32:15;;;;;;;19.35;8.70;;;;;;;22.84;14.61;101669.16;4950570;29;20127;-55
2022/03/01 11:35:03;;;;;;;20.50;9.55;;;;;;;22.23;14.85;101629.19;4948367;29;20085;-56
2022/03/01 11:38:12;;;;;;;18.85;8.20;;;;;;;23.18;14.53;101666.81;4951711;29;20061;-56
2022/03/01 11:41:19;;;;;;;16.88;8.82;;;;;;;22.81;15.20;101653.06;4942891;29;20054;-56
2022/03/01 11:44:08;;;;;;;18.00;9.32;;;;;;;22.98;14.71;101657.78;4933637;29;20057;-57
2022/03/01 11:46:53;;;;;;;17.48;9.20;;;;;;;21.80;15.49;101647.97;4951413;29;20495;-58
2022/03/01 11:49:40;;;;;;;16.60;8.93;;;;;;;20.31;16.35;101636.72;4951016;29;20127;-57
2022/03/01 11:52:35;;;;;;;16.45;10.20;;;;;;;20.15;16.70;101639.91;4935007;29;20459;-56
2022/03/01 11:55:21;;;;;;;15.00;10.15;;;;;;;20.32;17.19;101626.81;4933807;28;20552;-59
2022/03/01 11:58:06;;;;;;;20.30;9.55;;;;;;;19.65;16.48;101625.16;4922224;29;20066;-61
2022/03/01 12:00:53;;;;;;;23.00;11.43;;;;;;;19.94;17.20;101637.81;4910335;29;20221;-63
2022/03/01 12:03:39;;;;;;;24.55;11.23;;;;;;;20.68;17.80;101622.97;4951243;29;20118;-70
2022/03/01 12:06:28;;;;;;;18.67;10.18;;;;;;;20.94;17.80;101613.16;4949646;29;20050;-60
2022/03/01 12:09:16;;;;;;;23.50;10.35;;;;;;;20.00;18.39;101616.06;4920860;29;20129;-62
2022/03/01 12:12:08;;;;;;;23.85;12.18;;;;;;;19.08;18.51;101615.00;4937246;29;20527;-57
2022/03/01 12:14:54;;;;;;;27.63;11.85;;;;;;;18.55;20.08;101610.06;4945668;29;20530;-64
2022/03/01 12:17:46;;;;;;;21.15;10.98;;;;;;;17.67;20.29;101611.91;4949248;29;20058;-64
2022/03/01 12:20:30;;;;;;;23.92;11.32;;;;;;;16.45;20.98;101508.66;4908898;29;20073;-62
2022/03/01 12:23:27;;;;;;;24.20;11.18;;;;;;;16.39;22.13;101607.81;4910266;29;20133;-64
2022/03/01 12:26:15;;;;;;;23.10;10.70;;;;;;;15.97;22.76;101597.69;4950619;28;20451;-64
2022/03/01 12:29:01;;;;;;;23.17;10.98;;;;;;;15.64;22.92;101575.81;4917729;29;20074;-62
2022/03/01 12:32:07;;;;;;;26.20;11.32;;;;;;;14.94;24.01;101602.34;4948967;29;20050;-66
2022/03/01 12:34:51;;;;;;;25.10;11.38;;;;;;;14.45;24.98;101600.97;4946966;29;20054;-62
2022/03/01 12:37:36;;;;;;;22.02;11.43;;;;;;;13.82;25.76;101598.59;4936769;29;20110;-62